Time;durP1;ratioP1;P1;durP2;ratioP2;P2;SDS_P1;SDS_P2;PMS_P1;PMS_P2;Temp;Humidity;BMP_temperature;BMP_pressure;BME280_temperature;BME280_humidity;BME280_pressure;Samples;Min_cycle;Max_cycle;Signal;HPM_P1;HPM_P2
2023/03/13 00:01:43;;;;;;;2.58;1.52;;;;;;;5.07;80.89;101390.08;1856609;76;21125;-47
2023/03/13 00:04:12;;;;;;;2.58;1.20;;;;;;;5.00;80.64;101392.73;1857198;76;21628;-44
2023/03/13 00:06:41;;;;;;;1.50;1.20;;;;;;;4.97;80.64;101399.27;1854357;76;21105;-45
2023/03/13 00:09:12;;;;;;;3.05;1.32;;;;;;;4.92;80.70;101406.25;1856264;76;21166;-44
2023/03/13 00:11:40;;;;;;;2.45;1.47;;;;;;;4.90;80.64;101406.69;1855144;76;21089;-45
2023/03/13 00:14:09;;;;;;;2.67;1.40;;;;;;;4.90;80.71;101414.52;1860465;76;21031;-45
2023/03/13 00:16:38;;;;;;;1.85;1.25;;;;;;;4.91;80.53;101408.89;1855142;76;21571;-45
2023/03/13 00:19:08;;;;;;;1.92;1.30;;;;;;;4.88;80.38;101404.53;1856993;76;21541;-45
2023/03/13 00:21:37;;;;;;;5.53;1.30;;;;;;;4.89;80.25;101406.69;1856285;76;21121;-45
2023/03/13 00:24:06;;;;;;;4.85;1.85;;;;;;;4.83;80.12;101413.70;1855157;76;21251;-44
2023/03/13 00:26:35;;;;;;;2.62;1.40;;;;;;;4.79;80.09;101422.84;1854674;76;21098;-45
2023/03/13 00:29:03;;;;;;;2.37;1.45;;;;;;;4.76;80.13;101435.92;1856106;76;21137;-47
2023/03/13 00:31:32;;;;;;;3.47;1.72;;;;;;;4.81;80.04;101433.72;1855396;76;21094;-48
2023/03/13 00:34:03;;;;;;;2.90;1.75;;;;;;;4.79;79.62;101430.67;1856626;76;21192;-46
2023/03/13 00:36:35;;;;;;;3.80;1.75;;;;;;;4.70;79.88;101432.87;1855390;76;21075;-47
2023/03/13 00:39:06;;;;;;;4.50;1.95;;;;;;;4.68;79.89;101431.15;1844795;76;21602;-50
2023/03/13 00:41:37;;;;;;;3.37;1.92;;;;;;;4.67;79.84;101435.51;1831404;77;21532;-48
2023/03/13 00:44:07;;;;;;;4.67;1.72;;;;;;;4.68;79.59;101437.67;1836738;77;21075;-51
2023/03/13 00:46:36;;;;;;;2.72;1.72;;;;;;;4.69;79.46;101432.90;1835523;77;21536;-50
2023/03/13 00:49:05;;;;;;;4.20;1.80;;;;;;;4.63;79.31;101446.39;1837386;77;21595;-47
2023/03/13 00:51:35;;;;;;;4.17;1.80;;;;;;;4.56;79.46;101456.84;1837930;77;21662;-48
2023/03/13 00:54:04;;;;;;;4.08;2.85;;;;;;;4.51;78.83;101460.75;1834016;77;21170;-46
2023/03/13 00:56:34;;;;;;;3.75;2.17;;;;;;;4.56;79.16;101465.98;1837935;77;21219;-47
2023/03/13 00:59:02;;;;;;;3.58;1.90;;;;;;;4.59;79.13;101468.55;1838132;77;21126;-46
2023/03/13 01:01:34;;;;;;;5.33;2.40;;;;;;;4.52;78.57;101474.25;1836062;77;21152;-46
2023/03/13 01:04:06;;;;;;;5.55;2.27;;;;;;;4.47;78.68;101482.50;1833806;77;21216;-45
2023/03/13 01:06:37;;;;;;;4.80;2.62;;;;;;;4.45;78.48;101481.64;1836556;77;21166;-46
2023/03/13 01:09:06;;;;;;;3.83;2.47;;;;;;;4.41;78.61;101492.96;1834441;77;21199;-46
2023/03/13 01:11:37;;;;;;;4.97;2.30;;;;;;;4.37;78.65;101492.09;1834684;77;21106;-45
2023/03/13 01:14:09;;;;;;;5.30;2.72;;;;;;;4.37;78.32;101488.59;1833581;77;21603;-45
2023/03/13 01:16:39;;;;;;;5.33;2.10;;;;;;;4.33;78.25;101492.08;1835620;77;21136;-45
2023/03/13 01:19:14;;;;;;;3.40;2.00;;;;;;;4.33;78.42;101498.59;1835943;77;21161;-46
2023/03/13 01:21:44;;;;;;;5.83;2.50;;;;;;;4.33;78.35;101489.48;1833466;77;21113;-45
2023/03/13 01:24:13;;;;;;;6.58;2.98;;;;;;;4.34;78.27;101489.48;1835294;77;21684;-46
2023/03/13 01:26:44;;;;;;;5.90;2.52;;;;;;;4.34;77.90;101494.69;1830950;77;21717;-46
2023/03/13 01:29:12;;;;;;;3.10;1.72;;;;;;;4.29;77.37;101500.34;1832782;77;21101;-46
2023/03/13 01:31:42;;;;;;;3.42;1.75;;;;;;;4.25;75.92;101502.08;1836592;77;21479;-45
2023/03/13 01:34:11;;;;;;;5.47;2.30;;;;;;;4.24;77.42;101497.75;1834447;77;21525;-48
2023/03/13 01:36:39;;;;;;;3.95;2.52;;;;;;;4.28;77.47;101496.42;1835382;77;21516;-46
2023/03/13 01:39:08;;;;;;;4.60;2.27;;;;;;;4.29;77.50;101494.27;1837399;77;21197;-46
2023/03/13 01:41:38;;;;;;;5.90;2.47;;;;;;;4.27;77.28;101500.78;1843487;77;21045;-46
2023/03/13 01:44:08;;;;;;;7.17;2.72;;;;;;;4.21;77.33;101501.66;1843656;77;21163;-46
2023/03/13 01:46:38;;;;;;;4.30;1.47;;;;;;;4.23;77.36;101499.05;1843231;77;21082;-46
2023/03/13 01:49:20;;;;;;;4.35;2.60;;;;;;;4.22;76.36;101499.91;1842501;77;21739;-45
2023/03/13 01:52:05;;;;;;;9.80;2.75;;;;;;;4.20;77.28;101506.86;1838635;77;21913;-46
2023/03/13 01:54:38;;;;;;;6.20;3.15;;;;;;;4.16;76.88;101512.52;1841253;77;21270;-46
2023/03/13 01:57:10;;;;;;;5.33;3.10;;;;;;;4.14;77.22;101518.16;1843096;77;21134;-47
2023/03/13 01:59:45;;;;;;;6.80;3.33;;;;;;;4.15;77.17;101516.41;1844678;77;21229;-46
2023/03/13 02:02:14;;;;;;;6.45;2.65;;;;;;;4.10;77.04;101524.70;1842492;77;21134;-46
2023/03/13 02:04:49;;;;;;;4.92;2.40;;;;;;;4.06;77.10;101532.95;1845076;77;21125;-45
2023/03/13 02:07:22;;;;;;;4.55;2.50;;;;;;;3.99;76.93;101535.11;1838008;77;21096;-45
2023/03/13 02:09:53;;;;;;;6.95;3.22;;;;;;;3.97;77.00;101536.84;1817773;78;21263;-46
2023/03/13 02:12:31;;;;;;;7.97;3.45;;;;;;;3.93;76.93;101534.67;1840762;77;21576;-46
2023/03/13 02:15:08;;;;;;;6.05;3.17;;;;;;;3.94;77.02;101529.88;1789786;78;21215;-47
2023/03/13 02:17:40;;;;;;;5.75;3.47;;;;;;;3.89;76.79;101540.72;1821058;78;21496;-45
2023/03/13 02:20:10;;;;;;;5.80;2.85;;;;;;;3.81;76.85;101547.22;1803167;78;21138;-46
2023/03/13 02:22:44;;;;;;;6.47;2.70;;;;;;;3.73;76.88;101542.45;1839681;77;21054;-47
2023/03/13 02:25:29;;;;;;;4.15;2.65;;;;;;;3.68;76.98;101550.23;1837579;77;21105;-45
2023/03/13 02:28:18;;;;;;;6.97;3.45;;;;;;;3.66;77.09;101558.92;1842138;77;21014;-44
2023/03/13 02:30:49;;;;;;;5.37;3.08;;;;;;;3.67;77.05;101566.75;1842700;77;21236;-46
2023/03/13 02:33:19;;;;;;;6.28;2.92;;;;;;;3.62;77.06;101563.70;1823203;78;21156;-46
2023/03/13 02:35:49;;;;;;;6.37;2.95;;;;;;;3.62;77.06;101572.81;1803874;78;21146;-45
2023/03/13 02:38:22;;;;;;;6.45;3.40;;;;;;;3.57;76.89;101574.52;1842141;77;21054;-49
2023/03/13 02:40:52;;;;;;;5.62;2.75;;;;;;;3.52;76.92;101576.23;1849849;76;21094;-45
2023/03/13 02:43:33;;;;;;;6.72;2.95;;;;;;;3.45;76.89;101582.73;1857809;76;21170;-47
2023/03/13 02:46:04;;;;;;;7.72;3.40;;;;;;;3.43;77.02;101592.69;1853267;76;21195;-45
2023/03/13 02:48:39;;;;;;;7.53;3.27;;;;;;;3.42;77.07;101591.83;1855533;76;21137;-45
2023/03/13 02:51:14;;;;;;;8.40;4.05;;;;;;;3.41;77.11;101608.33;1854556;76;21035;-45
2023/03/13 02:53:44;;;;;;;5.85;3.33;;;;;;;3.42;77.11;101598.77;1846680;76;21589;-45
2023/03/13 02:56:16;;;;;;;5.33;3.25;;;;;;;3.37;76.98;101602.64;1854517;76;21133;-44
2023/03/13 02:58:45;;;;;;;6.97;3.33;;;;;;;3.38;76.86;101610.05;1852055;76;21690;-45
2023/03/13 03:01:13;;;;;;;4.87;2.72;;;;;;;3.40;76.86;101619.59;1856281;76;21042;-46
2023/03/13 03:03:42;;;;;;;7.40;3.30;;;;;;;3.41;76.71;101628.27;1851072;76;21698;-45
2023/03/13 03:06:11;;;;;;;3.87;2.35;;;;;;;3.39;76.63;101632.16;1855034;76;21223;-45
2023/03/13 03:08:42;;;;;;;6.97;3.60;;;;;;;3.38;76.58;101628.27;1860319;76;21028;-46
2023/03/13 03:11:12;;;;;;;7.25;3.15;;;;;;;3.33;76.56;101633.44;1857138;76;21193;-47
2023/03/13 03:13:41;;;;;;;6.35;3.47;;;;;;;3.31;76.62;101639.51;1853841;76;21658;-45
2023/03/13 03:16:14;;;;;;;7.25;3.25;;;;;;;3.32;76.62;101649.94;1856070;76;21082;-45
2023/03/13 03:18:42;;;;;;;7.67;3.72;;;;;;;3.29;76.60;101651.20;1855403;76;21186;-49
2023/03/13 03:21:11;;;;;;;5.58;3.25;;;;;;;3.28;76.56;101643.84;1853582;76;21240;-47
2023/03/13 03:23:40;;;;;;;8.88;2.58;;;;;;;3.27;76.46;101649.89;1855935;76;21659;-45
2023/03/13 03:26:09;;;;;;;10.03;3.70;;;;;;;3.27;76.44;101656.40;1854581;76;21616;-45
2023/03/13 03:28:38;;;;;;;7.20;3.25;;;;;;;3.28;76.37;101670.28;1857442;76;21089;-46
2023/03/13 03:31:10;;;;;;;9.30;3.83;;;;;;;3.32;76.39;101683.78;1857961;76;21161;-45
2023/03/13 03:33:41;;;;;;;9.23;3.72;;;;;;;3.35;76.48;101690.72;1856422;76;21237;-45
2023/03/13 03:36:14;;;;;;;5.95;3.25;;;;;;;3.38;76.47;101695.95;1856791;76;21058;-45
2023/03/13 03:38:43;;;;;;;6.22;3.37;;;;;;;3.35;76.56;101699.39;1851933;76;21155;-47
2023/03/13 03:41:14;;;;;;;8.58;3.20;;;;;;;3.35;76.56;101699.83;1856915;76;21645;-46
2023/03/13 03:43:43;;;;;;;6.25;3.08;;;;;;;3.32;76.69;101692.89;1864088;76;21161;-46
2023/03/13 03:46:14;;;;;;;8.95;3.27;;;;;;;3.30;76.81;101695.88;1862343;76;21178;-46
2023/03/13 03:48:43;;;;;;;4.55;3.00;;;;;;;3.32;76.86;101691.59;1863009;76;21145;-47
2023/03/13 03:51:12;;;;;;;7.60;3.70;;;;;;;3.34;76.72;101700.27;1863318;76;21625;-48
2023/03/13 03:53:42;;;;;;;6.03;3.17;;;;;;;3.36;76.77;101710.27;1863226;76;21219;-46
2023/03/13 03:56:11;;;;;;;10.95;4.20;;;;;;;3.36;76.65;101715.91;1862899;76;21048;-45
2023/03/13 03:58:41;;;;;;;8.65;3.58;;;;;;;3.37;76.55;101713.28;1864791;76;21252;-44
2023/03/13 04:01:23;;;;;;;8.65;3.92;;;;;;;3.40;76.35;101708.55;1862955;76;21243;-47
2023/03/13 04:03:52;;;;;;;6.97;3.52;;;;;;;3.42;76.11;101718.54;1864205;76;21512;-45
2023/03/13 04:06:21;;;;;;;8.50;3.52;;;;;;;3.42;75.99;101727.21;1863579;76;21231;-45
2023/03/13 04:08:50;;;;;;;8.18;3.52;;;;;;;3.42;75.84;101732.42;1863595;76;21514;-46
2023/03/13 04:11:20;;;;;;;6.55;3.75;;;;;;;3.44;75.76;101741.11;1861854;76;21045;-46
2023/03/13 04:13:51;;;;;;;8.28;4.05;;;;;;;3.41;75.60;101741.11;1865648;77;21085;-46
2023/03/13 04:16:20;;;;;;;8.70;4.08;;;;;;;3.40;75.67;101743.26;1865461;77;21080;-48
2023/03/13 04:18:49;;;;;;;8.10;4.30;;;;;;;3.37;75.70;101741.06;1865763;77;21594;-46
2023/03/13 04:21:18;;;;;;;8.00;4.05;;;;;;;3.35;75.71;101743.65;1865648;76;21124;-46
2023/03/13 04:23:55;;;;;;;8.98;3.83;;;;;;;3.36;75.72;101751.05;1865499;77;21084;-46
2023/03/13 04:26:24;;;;;;;8.73;3.67;;;;;;;3.37;75.68;101764.49;1865169;76;21635;-46
2023/03/13 04:28:54;;;;;;;7.05;3.58;;;;;;;3.35;75.59;101768.83;1865931;77;21073;-46
2023/03/13 04:31:24;;;;;;;5.78;3.40;;;;;;;3.38;75.54;101768.86;1863920;77;21073;-51
2023/03/13 04:34:06;;;;;;;6.85;3.60;;;;;;;3.40;75.56;101782.75;1811824;77;21082;-47
2023/03/13 04:36:42;;;;;;;6.03;3.20;;;;;;;3.40;75.59;101782.31;1831268;77;21231;-46
2023/03/13 04:39:29;;;;;;;7.17;3.30;;;;;;;3.40;75.56;101782.75;1859669;77;21078;-49
2023/03/13 04:42:15;;;;;;;7.53;3.50;;;;;;;3.42;75.59;101791.00;1854217;76;21127;-46
2023/03/13 04:45:02;;;;;;;6.90;3.17;;;;;;;3.46;75.59;101793.20;1850109;77;21074;-46
2023/03/13 04:47:38;;;;;;;6.30;3.65;;;;;;;3.50;75.55;101796.70;1856104;76;21536;-49
2023/03/13 04:50:11;;;;;;;7.40;3.37;;;;;;;3.54;75.46;101803.66;1874964;76;21490;-49
2023/03/13 04:52:45;;;;;;;7.08;3.52;;;;;;;3.54;75.24;101802.36;1855810;76;21156;-50
2023/03/13 04:55:16;;;;;;;7.28;3.05;;;;;;;3.59;75.42;101811.09;1874807;76;21070;-51
2023/03/13 04:58:02;;;;;;;19.25;5.03;;;;;;;3.63;75.27;101812.84;1874547;76;21063;-47
2023/03/13 05:00:47;;;;;;;3.98;2.17;;;;;;;3.73;75.30;101815.97;1874674;76;21143;-47
2023/03/13 05:03:24;;;;;;;5.72;2.83;;;;;;;3.81;75.23;101825.12;1874706;76;21066;-47
2023/03/13 05:05:54;;;;;;;6.22;3.08;;;;;;;3.80;75.11;101829.47;1873374;76;21443;-47
2023/03/13 05:08:24;;;;;;;6.37;2.27;;;;;;;3.78;74.93;101836.41;1875370;76;21140;-47
2023/03/13 05:10:55;;;;;;;4.53;2.92;;;;;;;3.79;74.98;101836.83;1854473;76;21073;-47
2023/03/13 05:13:28;;;;;;;5.25;2.80;;;;;;;3.80;74.97;101840.30;1874889;76;21109;-48
2023/03/13 05:16:02;;;;;;;4.60;2.60;;;;;;;3.82;74.96;101839.47;1875016;76;21510;-46
2023/03/13 05:18:38;;;;;;;5.37;2.77;;;;;;;3.83;74.94;101841.20;1837834;76;21587;-47
2023/03/13 05:21:09;;;;;;;3.98;2.77;;;;;;;3.82;74.75;101842.08;1873703;76;21117;-47
2023/03/13 05:23:39;;;;;;;7.25;2.40;;;;;;;3.83;74.79;101846.41;1875231;76;21572;-47
2023/03/13 05:26:12;;;;;;;6.03;2.55;;;;;;;3.85;74.70;101846.42;1855778;76;21126;-47
2023/03/13 05:28:45;;;;;;;7.90;2.55;;;;;;;3.85;74.65;101851.23;1874572;76;21078;-49
2023/03/13 05:31:15;;;;;;;4.00;2.42;;;;;;;3.88;74.53;101853.41;1874699;76;21128;-49
2023/03/13 05:33:45;;;;;;;9.05;3.02;;;;;;;3.90;74.47;101851.68;1875052;76;21140;-48
2023/03/13 05:36:24;;;;;;;3.87;2.12;;;;;;;3.97;74.44;101854.77;1874590;76;21039;-47
2023/03/13 05:39:11;;;;;;;4.78;1.92;;;;;;;4.08;74.48;101857.00;1874474;76;21505;-47
2023/03/13 05:41:44;;;;;;;4.45;1.98;;;;;;;4.21;74.00;101856.64;1874573;76;21193;-47
2023/03/13 05:44:20;;;;;;;3.67;2.22;;;;;;;4.34;73.91;101866.26;1839996;76;21038;-49
2023/03/13 05:46:53;;;;;;;3.37;1.75;;;;;;;4.48;73.75;101874.57;1877749;76;21172;-48
2023/03/13 05:49:40;;;;;;;5.53;2.37;;;;;;;4.50;73.37;101876.34;1877793;76;21162;-49
2023/03/13 05:52:16;;;;;;;1.30;0.65;;;;;;;4.56;73.29;101881.57;1840021;76;21051;-49
2023/03/13 05:54:56;;;;;;;2.17;1.22;;;;;;;4.61;73.25;101879.86;1877708;76;21185;-49
2023/03/13 05:57:38;;;;;;;2.72;1.60;;;;;;;4.64;73.07;101886.37;1827354;76;21046;-50
2023/03/13 06:00:10;;;;;;;8.63;2.12;;;;;;;4.69;73.08;101886.84;1877447;76;21511;-45
2023/03/13 06:02:42;;;;;;;2.58;1.07;;;;;;;4.78;72.84;101894.27;1852008;76;21121;-46
2023/03/13 06:05:13;;;;;;;6.22;1.50;;;;;;;4.86;72.67;101896.89;1877614;76;21565;-45
2023/03/13 06:07:41;;;;;;;2.33;1.07;;;;;;;4.84;72.16;101899.49;1877398;76;21104;-45
2023/03/13 06:10:11;;;;;;;4.00;1.40;;;;;;;4.84;72.12;101897.33;1877602;76;21124;-45
2023/03/13 06:12:39;;;;;;;5.12;1.10;;;;;;;4.85;72.11;101897.78;1877524;76;21141;-45
2023/03/13 06:15:11;;;;;;;1.75;0.75;;;;;;;4.87;71.97;101902.56;1877450;76;21138;-44
2023/03/13 06:17:43;;;;;;;;;;;;;;;4.87;71.67;101901.27;1879778;76;21175;-45
2023/03/13 06:20:12;;;;;;;0.98;0.72;;;;;;;4.88;71.50;101906.91;1877470;76;20152;-47
2023/03/13 06:22:41;;;;;;;0.98;0.78;;;;;;;4.86;71.15;101896.03;1877643;76;21106;-46
2023/03/13 06:25:10;;;;;;;4.10;1.30;;;;;;;4.83;70.87;101903.40;1877592;76;21481;-45
2023/03/13 06:27:41;;;;;;;3.37;1.25;;;;;;;4.84;70.79;101903.41;1877526;76;21577;-46
2023/03/13 06:30:11;;;;;;;3.20;1.57;;;;;;;4.88;70.70;101899.52;1877669;76;21074;-47
2023/03/13 06:32:39;;;;;;;5.20;2.33;;;;;;;4.99;70.83;101905.19;1877508;76;21069;-47
2023/03/13 06:35:08;;;;;;;10.50;2.15;;;;;;;5.07;70.47;101908.26;1877542;76;21031;-48
2023/03/13 06:37:37;;;;;;;3.83;1.57;;;;;;;5.11;70.32;101916.53;1877604;76;21047;-47
2023/03/13 06:40:07;;;;;;;2.67;1.40;;;;;;;5.17;70.20;101912.64;1877735;76;21043;-48
2023/03/13 06:42:35;;;;;;;2.80;1.70;;;;;;;5.30;70.15;101907.87;1877680;76;21047;-48
2023/03/13 06:45:05;;;;;;;3.60;2.05;;;;;;;5.46;70.03;101914.00;1877571;76;21015;-46
2023/03/13 06:47:33;;;;;;;4.05;2.12;;;;;;;5.60;69.52;101916.61;1877805;76;21042;-46
2023/03/13 06:50:02;;;;;;;4.25;2.20;;;;;;;5.69;69.28;101925.76;1877650;76;21019;-45
2023/03/13 06:52:30;;;;;;;9.68;3.08;;;;;;;5.75;68.98;101928.36;1877699;76;21124;-48
2023/03/13 06:54:59;;;;;;;5.33;2.02;;;;;;;5.83;68.69;101934.92;1877713;76;21101;-46
2023/03/13 06:57:28;;;;;;;4.25;0.95;;;;;;;5.84;68.26;101925.33;1877635;76;21434;-44
2023/03/13 06:59:57;;;;;;;0.75;0.62;;;;;;;5.94;68.47;101935.78;1877557;76;21055;-44
2023/03/13 07:02:25;;;;;;;3.37;1.12;;;;;;;6.07;68.21;101941.91;1877769;76;21042;-46
2023/03/13 07:04:54;;;;;;;3.25;1.00;;;;;;;6.16;68.00;101937.97;1877742;76;21043;-48
2023/03/13 07:07:23;;;;;;;4.75;2.12;;;;;;;6.25;67.76;101924.42;1877746;76;21011;-48
2023/03/13 07:09:51;;;;;;;4.35;1.82;;;;;;;6.31;67.29;101933.59;1877897;76;21050;-47
2023/03/13 07:12:20;;;;;;;1.95;1.17;;;;;;;6.42;66.77;101932.23;1877673;76;21196;-48
2023/03/13 07:14:48;;;;;;;2.22;1.10;;;;;;;6.46;66.24;101933.98;1877832;76;21015;-48
2023/03/13 07:17:17;;;;;;;3.02;1.05;;;;;;;6.49;66.07;101934.85;1877783;76;21124;-50
2023/03/13 07:19:46;;;;;;;3.72;1.20;;;;;;;6.49;65.94;101936.16;1877929;76;21124;-54
2023/03/13 07:22:14;;;;;;;4.50;1.10;;;;;;;6.50;65.72;101942.25;1878108;76;21486;-54
2023/03/13 07:24:43;;;;;;;2.95;1.30;;;;;;;6.51;65.65;101933.09;1877793;76;21087;-54
2023/03/13 07:27:12;;;;;;;2.72;1.72;;;;;;;6.56;65.70;101936.55;1877915;76;21132;-48
2023/03/13 07:29:41;;;;;;;8.65;2.45;;;;;;;6.68;65.71;101937.41;1877996;76;21450;-49
2023/03/13 07:32:10;;;;;;;5.70;2.10;;;;;;;6.76;65.37;101938.23;1877886;76;21678;-52
2023/03/13 07:34:38;;;;;;;2.80;1.00;;;;;;;6.88;65.09;101933.37;1878008;76;21023;-48
2023/03/13 07:37:07;;;;;;;3.98;1.45;;;;;;;7.01;64.85;101939.42;1877891;76;21054;-49
2023/03/13 07:39:35;;;;;;;1.55;1.07;;;;;;;7.16;64.65;101936.73;1877764;76;21139;-48
2023/03/13 07:42:04;;;;;;;2.87;2.05;;;;;;;7.34;64.38;101936.62;1877892;76;21058;-48
2023/03/13 07:44:34;;;;;;;4.08;1.55;;;;;;;7.53;63.81;101936.50;1878012;76;21156;-50
2023/03/13 07:47:03;;;;;;;4.50;1.80;;;;;;;7.55;62.52;101938.66;1877969;76;21062;-49
2023/03/13 07:49:32;;;;;;;1.67;1.20;;;;;;;7.62;62.20;101939.50;1877973;76;21055;-48
2023/03/13 07:52:01;;;;;;;6.05;1.45;;;;;;;7.68;61.80;101940.30;1877858;76;21544;-45
2023/03/13 07:54:29;;;;;;;5.28;1.00;;;;;;;7.78;61.57;101938.92;1877809;76;21085;-47
2023/03/13 07:56:58;;;;;;;1.22;0.75;;;;;;;7.83;60.80;101927.96;1877902;76;21051;-48
2023/03/13 07:59:27;;;;;;;2.00;1.00;;;;;;;7.80;60.67;101924.05;1877771;76;21042;-49
2023/03/13 08:01:56;;;;;;;3.85;1.70;;;;;;;7.78;60.58;101930.61;1877823;76;21548;-46
2023/03/13 08:04:24;;;;;;;3.70;1.12;;;;;;;7.73;60.35;101930.66;1877548;76;21063;-46
2023/03/13 08:06:53;;;;;;;5.80;2.08;;;;;;;7.71;60.21;101914.08;1877981;76;21055;-46
2023/03/13 08:09:22;;;;;;;1.32;1.10;;;;;;;7.72;60.05;101910.55;1877904;76;21493;-46
2023/03/13 08:11:50;;;;;;;3.17;1.47;;;;;;;7.69;60.02;101915.84;1877948;76;21105;-44
2023/03/13 08:14:19;;;;;;;1.90;0.80;;;;;;;7.66;60.19;101921.10;1877702;76;21019;-43
2023/03/13 08:16:47;;;;;;;2.17;1.07;;;;;;;7.50;59.45;101924.72;1877854;76;21058;-47
2023/03/13 08:19:16;;;;;;;2.10;0.90;;;;;;;7.36;59.30;101915.66;1877875;76;21102;-47
2023/03/13 08:21:45;;;;;;;1.87;0.90;;;;;;;7.25;59.26;101919.66;1877746;76;21133;-45
2023/03/13 08:24:13;;;;;;;3.75;1.20;;;;;;;7.22;59.43;101922.28;1877779;76;21047;-46
2023/03/13 08:26:42;;;;;;;1.25;1.12;;;;;;;7.19;59.00;101927.53;1877953;76;21054;-48
2023/03/13 08:29:13;;;;;;;4.70;1.32;;;;;;;7.24;59.18;101929.69;1877848;76;21497;-43
2023/03/13 08:31:47;;;;;;;1.40;1.00;;;;;;;7.26;58.71;101929.69;1877651;76;21038;-43
2023/03/13 08:34:17;;;;;;;0.95;0.85;;;;;;;7.27;58.34;101930.99;1877978;76;21183;-49
2023/03/13 08:36:46;;;;;;;3.40;0.80;;;;;;;7.27;57.75;101925.75;1877998;76;21547;-45
2023/03/13 08:39:17;;;;;;;2.47;1.27;;;;;;;7.41;57.97;101923.47;1877898;76;21051;-47
2023/03/13 08:41:46;;;;;;;1.92;1.15;;;;;;;7.57;57.80;101915.94;1877976;76;21051;-46
2023/03/13 08:44:17;;;;;;;1.90;1.15;;;;;;;7.65;57.02;101916.73;1877231;76;21180;-48
2023/03/13 08:46:47;;;;;;;3.58;1.82;;;;;;;7.75;56.08;101925.41;1874721;76;21047;-46
2023/03/13 08:49:16;;;;;;;3.67;1.47;;;;;;;7.91;55.79;101914.33;1874520;76;21051;-45
2023/03/13 08:51:45;;;;;;;8.95;1.17;;;;;;;8.23;55.99;101915.34;1874610;76;21438;-46
2023/03/13 08:54:13;;;;;;;2.90;1.07;;;;;;;8.54;55.48;101915.45;1874603;76;21023;-47
2023/03/13 08:56:42;;;;;;;6.72;1.07;;;;;;;8.80;55.10;101909.45;1874386;76;21043;-48
2023/03/13 08:59:11;;;;;;;3.95;1.62;;;;;;;9.02;54.46;101910.04;1874625;76;21651;-45
2023/03/13 09:01:40;;;;;;;3.90;1.52;;;;;;;9.23;53.78;101911.48;1874608;76;21047;-46
2023/03/13 09:04:08;;;;;;;2.83;1.00;;;;;;;9.39;53.66;101906.02;1874524;76;21027;-46
2023/03/13 09:06:38;;;;;;;2.35;1.47;;;;;;;9.61;53.33;101904.77;1874728;76;21091;-46
2023/03/13 09:09:08;;;;;;;5.75;1.30;;;;;;;9.69;53.09;101900.69;1874479;76;21474;-46
2023/03/13 09:11:38;;;;;;;1.25;0.88;;;;;;;9.83;52.77;101909.22;1874651;76;21050;-50
2023/03/13 09:14:08;;;;;;;3.77;1.02;;;;;;;9.99;52.95;101909.80;1874728;76;21482;-46
2023/03/13 09:16:37;;;;;;;1.10;0.90;;;;;;;10.05;52.34;101908.40;1874482;76;21039;-48
2023/03/13 09:19:06;;;;;;;2.90;1.80;;;;;;;10.11;51.54;101911.82;1874490;76;21458;-47
2023/03/13 09:21:35;;;;;;;2.87;1.42;;;;;;;10.20;51.28;101907.70;1874403;76;21041;-47
2023/03/13 09:24:04;;;;;;;3.22;1.30;;;;;;;10.46;51.77;101903.70;1874592;76;21532;-49
2023/03/13 09:26:33;;;;;;;2.72;1.32;;;;;;;10.60;50.94;101910.45;1874576;76;21109;-48
2023/03/13 09:29:01;;;;;;;3.27;1.02;;;;;;;10.69;50.98;101908.05;1874583;76;21066;-47
2023/03/13 09:31:32;;;;;;;2.70;1.20;;;;;;;10.69;50.04;101900.16;1874479;76;21047;-46
2023/03/13 09:34:01;;;;;;;2.75;1.42;;;;;;;10.56;50.35;101901.31;1874333;76;21125;-47
2023/03/13 09:36:30;;;;;;;6.08;1.25;;;;;;;10.50;50.31;101900.99;1874540;76;21223;-56
2023/03/13 09:39:00;;;;;;;2.60;1.05;;;;;;;10.71;50.26;101897.49;1874547;76;21038;-49
2023/03/13 09:41:47;;;;;;;4.50;1.80;;;;;;;11.20;49.27;101889.83;1874459;76;21043;-47
2023/03/13 09:44:22;;;;;;;4.53;1.40;;;;;;;12.06;48.42;101880.22;1874291;76;21563;-45
2023/03/13 09:46:56;;;;;;;3.70;1.22;;;;;;;13.09;47.80;101871.47;1872370;76;21134;-42
2023/03/13 09:49:53;;;;;;;4.55;1.10;;;;;;;14.00;46.82;101861.00;1858454;76;21141;-44
2023/03/13 09:52:31;;;;;;;1.55;0.80;;;;;;;14.69;45.65;101856.31;1854966;76;21470;-45
2023/03/13 09:55:05;;;;;;;2.35;0.98;;;;;;;15.33;44.20;101857.72;1853204;76;21109;-44
2023/03/13 09:57:36;;;;;;;4.45;1.05;;;;;;;15.49;43.10;101850.44;1849118;76;21541;-43
2023/03/13 10:00:25;;;;;;;2.62;1.30;;;;;;;15.74;42.72;101860.45;1856814;76;21501;-41
2023/03/13 10:03:12;;;;;;;1.95;1.05;;;;;;;15.81;40.37;101869.88;1850290;76;21042;-46
2023/03/13 10:05:44;;;;;;;1.37;1.00;;;;;;;15.44;39.17;101869.23;1860646;76;21039;-47
2023/03/13 10:08:33;;;;;;;2.42;1.20;;;;;;;15.34;39.44;101854.13;1858266;76;21071;-48
2023/03/13 10:11:11;;;;;;;1.90;1.10;;;;;;;15.59;40.54;101838.52;1855849;77;21620;-50
2023/03/13 10:13:51;;;;;;;1.47;0.90;;;;;;;15.51;39.61;101830.89;1856426;77;21011;-50
2023/03/13 10:16:25;;;;;;;1.85;0.90;;;;;;;15.71;39.41;101846.41;1856267;77;21121;-48
2023/03/13 10:18:58;;;;;;;6.17;1.25;;;;;;;15.63;39.03;101837.45;1855145;77;21051;-52
2023/03/13 10:21:33;;;;;;;2.05;1.05;;;;;;;15.59;39.46;101838.52;1856900;76;21129;-47
2023/03/13 10:24:37;;;;;;;3.67;1.10;;;;;;;15.85;39.49;101843.20;1856550;77;21070;-47
2023/03/13 10:27:07;;;;;;;3.95;1.00;;;;;;;16.06;39.17;101839.58;1856481;77;21051;-50
2023/03/13 10:29:37;;;;;;;1.17;0.88;;;;;;;15.92;37.55;101836.23;1856579;76;21145;-47
2023/03/13 10:32:08;;;;;;;1.95;1.20;;;;;;;15.55;36.89;101834.27;1856689;77;21495;-49
2023/03/13 10:34:59;;;;;;;1.72;1.10;;;;;;;15.48;37.57;101831.48;1856603;77;21054;-48
2023/03/13 10:37:30;;;;;;;7.37;1.67;;;;;;;15.20;38.19;101832.16;1856484;76;21103;-47
2023/03/13 10:40:14;;;;;;;2.17;1.50;;;;;;;14.74;38.15;101843.28;1863978;76;21074;-47
2023/03/13 10:42:47;;;;;;;4.97;1.35;;;;;;;14.63;38.95;101846.81;1856598;77;21050;-46
2023/03/13 10:45:18;;;;;;;2.08;1.07;;;;;;;14.49;39.31;101826.94;1856809;77;21187;-45
2023/03/13 10:47:55;;;;;;;2.65;1.05;;;;;;;14.42;39.11;101821.94;1829438;77;21082;-45
2023/03/13 10:50:26;;;;;;;3.27;1.45;;;;;;;14.23;39.71;101829.25;1822308;79;21132;-49
2023/03/13 10:52:55;;;;;;;3.22;1.30;;;;;;;14.45;40.02;101830.64;1822223;79;21112;-46
2023/03/13 10:55:25;;;;;;;2.02;1.00;;;;;;;14.55;39.02;101840.45;1822188;79;21493;-46
2023/03/13 10:58:05;;;;;;;2.00;1.17;;;;;;;14.52;38.94;101836.58;1831300;78;21044;-44
2023/03/13 11:00:40;;;;;;;2.52;1.22;;;;;;;14.45;39.15;101829.78;1842195;78;21038;-45
2023/03/13 11:03:14;;;;;;;2.30;1.42;;;;;;;14.55;38.75;101837.80;1841816;76;21098;-48
2023/03/13 11:05:43;;;;;;;6.30;2.22;;;;;;;14.62;38.08;101831.34;1838364;78;21106;-48
2023/03/13 11:08:14;;;;;;;3.42;1.42;;;;;;;14.71;38.78;101816.02;1842078;78;21549;-47
2023/03/13 11:11:03;;;;;;;5.00;1.47;;;;;;;14.37;38.68;101819.48;1842050;78;21196;-45
2023/03/13 11:13:43;;;;;;;3.17;0.98;;;;;;;14.41;38.81;101816.25;1841422;78;21585;-45
2023/03/13 11:16:29;;;;;;;4.75;1.60;;;;;;;14.38;38.83;101799.98;1841962;78;21070;-48
2023/03/13 11:19:21;;;;;;;4.70;1.70;;;;;;;14.37;39.50;101795.63;1842142;78;21048;-48
2023/03/13 11:21:58;;;;;;;4.62;1.50;;;;;;;14.37;39.33;101805.38;1841775;78;21133;-49
2023/03/13 11:24:55;;;;;;;2.90;1.12;;;;;;;14.31;39.36;101802.94;1841912;78;21141;-43
2023/03/13 11:27:48;;;;;;;7.15;1.60;;;;;;;14.34;39.54;101809.45;1811759;79;21493;-47
2023/03/13 11:30:46;;;;;;;4.45;1.70;;;;;;;14.00;39.28;101800.09;1816329;78;21532;-44
2023/03/13 11:33:36;;;;;;;1.77;1.30;;;;;;;13.82;39.53;101798.53;1802559;79;21560;-45
2023/03/13 11:36:28;;;;;;;2.50;1.20;;;;;;;13.84;40.01;101798.02;1802731;79;21156;-46
2023/03/13 11:39:11;;;;;;;3.55;1.20;;;;;;;13.70;39.34;101801.59;1841720;78;21114;-43
2023/03/13 11:41:45;;;;;;;1.67;1.42;;;;;;;13.46;39.86;101800.67;1803165;78;21665;-47
2023/03/13 11:44:42;;;;;;;7.92;1.10;;;;;;;13.02;40.22;101801.22;1834223;78;21087;-41
2023/03/13 11:47:36;;;;;;;2.87;1.37;;;;;;;12.52;40.78;101800.57;1852681;76;21230;-42
2023/03/13 11:50:10;;;;;;;1.87;1.20;;;;;;;12.25;41.43;101791.68;1865360;76;21145;-48
2023/03/13 11:52:50;;;;;;;3.27;1.40;;;;;;;11.88;41.43;101803.25;1865913;75;21185;-46
2023/03/13 11:55:28;;;;;;;3.05;1.60;;;;;;;11.48;41.91;101793.76;1828709;76;21113;-47
2023/03/13 11:57:59;;;;;;;3.08;1.47;;;;;;;11.19;42.45;101792.75;1866223;76;21058;-45